East Liberty, Ohio
Current Conditions -  °F | °C
As of 10:30 PM on Saturday 22 Nov 2014 (Local Time) from KEDJ Reporting Station
Overcast Overcast  
Wind Chill: 43°   Ceiling: 4100
Heat Index: 48°   Visibility: 10mi
Dew Point: 36°   Wind: 14mph
Humidity: 62%   Direction: 190°S
Pressure: 30.03"   Gusts: NA
Location:  40.33°N, 83.58°W
Report Text: KEDJ 230330Z AUTO 19012KT 10SM BKN041 OVC050 09/02 A3003 RMK AO1
Loading
Personal Weather Stations






























Interactive Weather Map New forecast layout! Learn more

10-Day Weather Forecast

Advertisements
Track Severe Weather on mobile